sensor_id;sensor_type;location;lat;lon;timestamp;temperature;humidity
14783;DHT22;7483;50.498;12.138;2023-03-15T00:01:15;4.50;99.90
14783;DHT22;7483;50.498;12.138;2023-03-15T00:03:45;4.50;99.90
14783;DHT22;7483;50.498;12.138;2023-03-15T00:06:14;4.30;99.90
14783;DHT22;7483;50.498;12.138;2023-03-15T00:08:42;4.30;99.90
14783;DHT22;7483;50.498;12.138;2023-03-15T00:11:13;4.30;99.90
14783;DHT22;7483;50.498;12.138;2023-03-15T00:13:41;4.40;99.90
14783;DHT22;7483;50.498;12.138;2023-03-15T00:16:10;4.30;99.90
14783;DHT22;7483;50.498;12.138;2023-03-15T00:18:45;4.20;99.90
14783;DHT22;7483;50.498;12.138;2023-03-15T00:21:14;4.20;99.90
14783;DHT22;7483;50.498;12.138;2023-03-15T00:23:42;4.20;99.90
14783;DHT22;7483;50.498;12.138;2023-03-15T00:26:10;4.10;99.90
14783;DHT22;7483;50.498;12.138;2023-03-15T00:28:38;4.10;99.90
14783;DHT22;7483;50.498;12.138;2023-03-15T00:31:08;4.10;99.90
14783;DHT22;7483;50.498;12.138;2023-03-15T00:33:44;4.20;99.90
14783;DHT22;7483;50.498;12.138;2023-03-15T00:36:15;4.20;99.90
14783;DHT22;7483;50.498;12.138;2023-03-15T00:38:43;4.30;99.90
14783;DHT22;7483;50.498;12.138;2023-03-15T00:41:12;4.10;99.90
14783;DHT22;7483;50.498;12.138;2023-03-15T00:43:42;4.20;99.90
14783;DHT22;7483;50.498;12.138;2023-03-15T00:46:11;4.10;99.90
14783;DHT22;7483;50.498;12.138;2023-03-15T00:48:41;4.00;99.90
14783;DHT22;7483;50.498;12.138;2023-03-15T00:51:12;3.90;99.90
14783;DHT22;7483;50.498;12.138;2023-03-15T00:53:44;3.90;99.90
14783;DHT22;7483;50.498;12.138;2023-03-15T00:56:15;3.90;99.90
14783;DHT22;7483;50.498;12.138;2023-03-15T00:58:45;3.90;99.90
14783;DHT22;7483;50.498;12.138;2023-03-15T01:01:14;3.90;99.90
14783;DHT22;7483;50.498;12.138;2023-03-15T01:03:44;3.90;99.90
14783;DHT22;7483;50.498;12.138;2023-03-15T01:06:15;3.90;99.90
14783;DHT22;7483;50.498;12.138;2023-03-15T01:08:45;4.00;99.90
14783;DHT22;7483;50.498;12.138;2023-03-15T01:11:15;4.10;99.90
14783;DHT22;7483;50.498;12.138;2023-03-15T01:13:44;4.10;99.90
14783;DHT22;7483;50.498;12.138;2023-03-15T01:16:13;4.10;99.90
14783;DHT22;7483;50.498;12.138;2023-03-15T01:18:42;4.10;99.90
14783;DHT22;7483;50.498;12.138;2023-03-15T01:21:14;4.20;99.90
14783;DHT22;7483;50.498;12.138;2023-03-15T01:23:45;4.30;99.90
14783;DHT22;7483;50.498;12.138;2023-03-15T01:26:15;4.40;99.90
14783;DHT22;7483;50.498;12.138;2023-03-15T01:28:44;4.30;99.90
14783;DHT22;7483;50.498;12.138;2023-03-15T01:31:17;4.30;99.90
14783;DHT22;7483;50.498;12.138;2023-03-15T01:33:46;4.10;99.90
14783;DHT22;7483;50.498;12.138;2023-03-15T01:36:16;4.00;99.90
14783;DHT22;7483;50.498;12.138;2023-03-15T01:38:44;3.90;99.90
14783;DHT22;7483;50.498;12.138;2023-03-15T01:41:13;3.80;99.90
14783;DHT22;7483;50.498;12.138;2023-03-15T01:43:43;3.80;99.90
14783;DHT22;7483;50.498;12.138;2023-03-15T01:46:25;3.90;99.90
14783;DHT22;7483;50.498;12.138;2023-03-15T01:49:05;3.90;99.90
14783;DHT22;7483;50.498;12.138;2023-03-15T01:51:44;3.80;99.90
14783;DHT22;7483;50.498;12.138;2023-03-15T01:54:17;3.90;99.90
14783;DHT22;7483;50.498;12.138;2023-03-15T01:56:51;3.80;99.90
14783;DHT22;7483;50.498;12.138;2023-03-15T01:59:25;3.70;99.90
14783;DHT22;7483;50.498;12.138;2023-03-15T02:01:57;3.70;99.90
14783;DHT22;7483;50.498;12.138;2023-03-15T02:04:29;3.80;99.90
14783;DHT22;7483;50.498;12.138;2023-03-15T02:07:04;3.70;99.90
14783;DHT22;7483;50.498;12.138;2023-03-15T02:09:36;3.70;99.90
14783;DHT22;7483;50.498;12.138;2023-03-15T02:12:11;3.70;99.90
14783;DHT22;7483;50.498;12.138;2023-03-15T02:14:40;3.70;99.90
14783;DHT22;7483;50.498;12.138;2023-03-15T02:17:13;3.70;99.90
14783;DHT22;7483;50.498;12.138;2023-03-15T02:19:47;3.60;99.90
14783;DHT22;7483;50.498;12.138;2023-03-15T02:22:30;3.50;99.90
14783;DHT22;7483;50.498;12.138;2023-03-15T02:25:14;3.60;99.90
14783;DHT22;7483;50.498;12.138;2023-03-15T02:27:49;3.60;99.90
14783;DHT22;7483;50.498;12.138;2023-03-15T02:30:18;3.60;99.90
14783;DHT22;7483;50.498;12.138;2023-03-15T02:32:47;3.70;99.90
14783;DHT22;7483;50.498;12.138;2023-03-15T02:35:22;3.80;99.90
14783;DHT22;7483;50.498;12.138;2023-03-15T02:37:51;3.80;99.90
14783;DHT22;7483;50.498;12.138;2023-03-15T02:40:22;3.80;99.90
14783;DHT22;7483;50.498;12.138;2023-03-15T02:42:57;3.80;99.90
14783;DHT22;7483;50.498;12.138;2023-03-15T02:45:28;3.70;99.90
14783;DHT22;7483;50.498;12.138;2023-03-15T02:48:01;3.70;99.90
14783;DHT22;7483;50.498;12.138;2023-03-15T02:50:31;3.70;99.90
14783;DHT22;7483;50.498;12.138;2023-03-15T02:52:59;3.70;99.90
14783;DHT22;7483;50.498;12.138;2023-03-15T02:55:29;3.60;99.90
14783;DHT22;7483;50.498;12.138;2023-03-15T02:58:00;3.50;99.90
14783;DHT22;7483;50.498;12.138;2023-03-15T03:00:29;3.50;99.90
14783;DHT22;7483;50.498;12.138;2023-03-15T03:02:57;3.50;99.90
14783;DHT22;7483;50.498;12.138;2023-03-15T03:05:26;3.40;99.90
14783;DHT22;7483;50.498;12.138;2023-03-15T03:07:54;3.40;99.90
14783;DHT22;7483;50.498;12.138;2023-03-15T03:10:22;3.30;99.90
14783;DHT22;7483;50.498;12.138;2023-03-15T03:12:56;3.40;99.90
14783;DHT22;7483;50.498;12.138;2023-03-15T03:15:33;3.30;99.90
14783;DHT22;7483;50.498;12.138;2023-03-15T03:18:01;3.20;99.90
14783;DHT22;7483;50.498;12.138;2023-03-15T03:20:29;3.20;99.90
14783;DHT22;7483;50.498;12.138;2023-03-15T03:22:59;3.10;99.90
14783;DHT22;7483;50.498;12.138;2023-03-15T03:25:31;3.20;99.90
14783;DHT22;7483;50.498;12.138;2023-03-15T03:28:02;3.00;99.90
14783;DHT22;7483;50.498;12.138;2023-03-15T03:30:30;3.00;99.90
14783;DHT22;7483;50.498;12.138;2023-03-15T03:33:02;3.10;99.90
14783;DHT22;7483;50.498;12.138;2023-03-15T03:35:30;3.00;99.90
14783;DHT22;7483;50.498;12.138;2023-03-15T03:37:58;3.00;99.90
14783;DHT22;7483;50.498;12.138;2023-03-15T03:40:32;2.80;99.90
14783;DHT22;7483;50.498;12.138;2023-03-15T03:43:03;2.70;99.90
14783;DHT22;7483;50.498;12.138;2023-03-15T03:45:33;2.60;1.00
14783;DHT22;7483;50.498;12.138;2023-03-15T03:48:01;2.70;1.00
14783;DHT22;7483;50.498;12.138;2023-03-15T03:50:31;2.70;1.00
14783;DHT22;7483;50.498;12.138;2023-03-15T03:52:59;2.80;99.90
14783;DHT22;7483;50.498;12.138;2023-03-15T03:55:32;2.80;99.90
14783;DHT22;7483;50.498;12.138;2023-03-15T03:58:00;2.80;99.90
14783;DHT22;7483;50.498;12.138;2023-03-15T04:00:55;2.80;99.90
14783;DHT22;7483;50.498;12.138;2023-03-15T04:03:27;2.60;99.90
14783;DHT22;7483;50.498;12.138;2023-03-15T04:06:05;2.50;99.90
14783;DHT22;7483;50.498;12.138;2023-03-15T04:08:38;2.50;99.90
14783;DHT22;7483;50.498;12.138;2023-03-15T04:11:09;2.40;99.90
14783;DHT22;7483;50.498;12.138;2023-03-15T04:13:39;2.20;99.90
14783;DHT22;7483;50.498;12.138;2023-03-15T04:16:08;2.20;99.90
14783;DHT22;7483;50.498;12.138;2023-03-15T04:18:59;2.20;99.90
14783;DHT22;7483;50.498;12.138;2023-03-15T04:21:29;2.10;99.90
14783;DHT22;7483;50.498;12.138;2023-03-15T04:24:12;2.10;99.90
14783;DHT22;7483;50.498;12.138;2023-03-15T04:26:59;2.10;99.90
14783;DHT22;7483;50.498;12.138;2023-03-15T04:29:39;2.20;99.90
14783;DHT22;7483;50.498;12.138;2023-03-15T04:32:29;2.30;99.90
14783;DHT22;7483;50.498;12.138;2023-03-15T04:35:11;2.10;99.90
14783;DHT22;7483;50.498;12.138;2023-03-15T04:37:46;2.00;99.90
14783;DHT22;7483;50.498;12.138;2023-03-15T04:40:32;1.90;99.90
14783;DHT22;7483;50.498;12.138;2023-03-15T04:43:16;2.00;99.90
14783;DHT22;7483;50.498;12.138;2023-03-15T04:46:07;2.00;99.90
14783;DHT22;7483;50.498;12.138;2023-03-15T04:48:56;2.00;99.90
14783;DHT22;7483;50.498;12.138;2023-03-15T04:51:31;1.90;99.90
14783;DHT22;7483;50.498;12.138;2023-03-15T04:54:32;1.90;99.90
14783;DHT22;7483;50.498;12.138;2023-03-15T04:57:16;1.80;99.90
14783;DHT22;7483;50.498;12.138;2023-03-15T04:59:56;1.80;99.90
14783;DHT22;7483;50.498;12.138;2023-03-15T05:02:39;1.80;99.90
14783;DHT22;7483;50.498;12.138;2023-03-15T05:05:31;1.80;99.90
14783;DHT22;7483;50.498;12.138;2023-03-15T05:08:30;1.80;99.90
14783;DHT22;7483;50.498;12.138;2023-03-15T05:11:14;1.80;99.90
14783;DHT22;7483;50.498;12.138;2023-03-15T05:14:08;1.80;99.90
14783;DHT22;7483;50.498;12.138;2023-03-15T05:16:55;1.80;99.90
14783;DHT22;7483;50.498;12.138;2023-03-15T05:19:42;1.90;99.90
14783;DHT22;7483;50.498;12.138;2023-03-15T05:22:35;1.90;99.90
14783;DHT22;7483;50.498;12.138;2023-03-15T05:25:15;1.80;99.90
14783;DHT22;7483;50.498;12.138;2023-03-15T05:27:58;1.90;99.90
14783;DHT22;7483;50.498;12.138;2023-03-15T05:30:42;1.90;99.90
14783;DHT22;7483;50.498;12.138;2023-03-15T05:33:28;1.80;99.90
14783;DHT22;7483;50.498;12.138;2023-03-15T05:36:09;1.80;99.90
14783;DHT22;7483;50.498;12.138;2023-03-15T05:39:04;1.80;99.90
14783;DHT22;7483;50.498;12.138;2023-03-15T05:41:54;1.80;99.90
14783;DHT22;7483;50.498;12.138;2023-03-15T05:44:47;1.80;99.90
14783;DHT22;7483;50.498;12.138;2023-03-15T05:47:34;1.80;99.90
14783;DHT22;7483;50.498;12.138;2023-03-15T05:50:08;1.80;99.90
14783;DHT22;7483;50.498;12.138;2023-03-15T05:52:39;1.80;99.90
14783;DHT22;7483;50.498;12.138;2023-03-15T05:55:20;1.80;99.90
14783;DHT22;7483;50.498;12.138;2023-03-15T05:58:05;1.80;99.90
14783;DHT22;7483;50.498;12.138;2023-03-15T06:00:52;1.90;99.90
14783;DHT22;7483;50.498;12.138;2023-03-15T06:03:38;1.80;99.90
14783;DHT22;7483;50.498;12.138;2023-03-15T06:06:14;1.80;99.90
14783;DHT22;7483;50.498;12.138;2023-03-15T06:08:43;1.90;99.90
14783;DHT22;7483;50.498;12.138;2023-03-15T06:11:13;1.90;99.90
14783;DHT22;7483;50.498;12.138;2023-03-15T06:13:40;1.90;99.90
14783;DHT22;7483;50.498;12.138;2023-03-15T06:16:16;2.00;99.90
14783;DHT22;7483;50.498;12.138;2023-03-15T06:18:47;2.00;99.90
14783;DHT22;7483;50.498;12.138;2023-03-15T06:21:14;2.00;99.90
14783;DHT22;7483;50.498;12.138;2023-03-15T06:23:43;2.10;99.90
14783;DHT22;7483;50.498;12.138;2023-03-15T06:26:11;2.00;99.90
14783;DHT22;7483;50.498;12.138;2023-03-15T06:28:41;2.00;99.90
14783;DHT22;7483;50.498;12.138;2023-03-15T06:31:10;2.00;99.90
14783;DHT22;7483;50.498;12.138;2023-03-15T06:33:48;2.00;99.90
14783;DHT22;7483;50.498;12.138;2023-03-15T06:36:16;2.10;99.90
14783;DHT22;7483;50.498;12.138;2023-03-15T06:38:44;2.20;99.90
14783;DHT22;7483;50.498;12.138;2023-03-15T06:41:13;2.30;99.90
14783;DHT22;7483;50.498;12.138;2023-03-15T06:43:43;2.40;99.90
14783;DHT22;7483;50.498;12.138;2023-03-15T06:46:12;2.40;99.90
14783;DHT22;7483;50.498;12.138;2023-03-15T06:48:40;2.50;99.90
14783;DHT22;7483;50.498;12.138;2023-03-15T06:51:10;2.50;99.90
14783;DHT22;7483;50.498;12.138;2023-03-15T06:53:38;2.60;99.90
14783;DHT22;7483;50.498;12.138;2023-03-15T06:56:06;2.60;99.90
14783;DHT22;7483;50.498;12.138;2023-03-15T06:58:36;2.80;99.90
14783;DHT22;7483;50.498;12.138;2023-03-15T07:01:04;2.70;99.90
14783;DHT22;7483;50.498;12.138;2023-03-15T07:03:32;2.70;99.90
14783;DHT22;7483;50.498;12.138;2023-03-15T07:06:00;2.60;99.90
14783;DHT22;7483;50.498;12.138;2023-03-15T07:08:28;2.70;99.90
14783;DHT22;7483;50.498;12.138;2023-03-15T07:10:56;2.70;99.90
14783;DHT22;7483;50.498;12.138;2023-03-15T07:13:25;2.70;99.90
14783;DHT22;7483;50.498;12.138;2023-03-15T07:15:55;2.70;99.90
14783;DHT22;7483;50.498;12.138;2023-03-15T07:18:23;2.70;99.90
14783;DHT22;7483;50.498;12.138;2023-03-15T07:20:55;2.70;99.90
14783;DHT22;7483;50.498;12.138;2023-03-15T07:23:23;2.80;99.90
14783;DHT22;7483;50.498;12.138;2023-03-15T07:25:52;2.70;99.90
14783;DHT22;7483;50.498;12.138;2023-03-15T07:28:22;2.60;99.90
14783;DHT22;7483;50.498;12.138;2023-03-15T07:30:54;2.70;99.90
14783;DHT22;7483;50.498;12.138;2023-03-15T07:33:24;2.60;99.90
14783;DHT22;7483;50.498;12.138;2023-03-15T07:35:53;2.60;99.90
14783;DHT22;7483;50.498;12.138;2023-03-15T07:38:23;2.50;99.90
14783;DHT22;7483;50.498;12.138;2023-03-15T07:40:52;2.50;99.90
14783;DHT22;7483;50.498;12.138;2023-03-15T07:43:20;2.50;99.90
14783;DHT22;7483;50.498;12.138;2023-03-15T07:45:59;2.50;99.90
14783;DHT22;7483;50.498;12.138;2023-03-15T07:48:27;2.30;99.90
14783;DHT22;7483;50.498;12.138;2023-03-15T07:50:55;2.30;1.00
14783;DHT22;7483;50.498;12.138;2023-03-15T07:53:24;2.30;1.00
14783;DHT22;7483;50.498;12.138;2023-03-15T07:55:52;2.20;1.00
14783;DHT22;7483;50.498;12.138;2023-03-15T07:58:20;2.20;1.00
14783;DHT22;7483;50.498;12.138;2023-03-15T08:00:48;2.20;1.00
14783;DHT22;7483;50.498;12.138;2023-03-15T08:03:17;2.20;1.00
14783;DHT22;7483;50.498;12.138;2023-03-15T08:05:45;2.10;1.00
14783;DHT22;7483;50.498;12.138;2023-03-15T08:08:13;2.10;1.00
14783;DHT22;7483;50.498;12.138;2023-03-15T08:10:42;2.10;1.00
14783;DHT22;7483;50.498;12.138;2023-03-15T08:13:11;2.10;1.00
14783;DHT22;7483;50.498;12.138;2023-03-15T08:15:39;2.20;1.00
14783;DHT22;7483;50.498;12.138;2023-03-15T08:18:07;2.20;1.00
14783;DHT22;7483;50.498;12.138;2023-03-15T08:20:37;2.00;1.00
14783;DHT22;7483;50.498;12.138;2023-03-15T08:23:05;2.00;1.00
14783;DHT22;7483;50.498;12.138;2023-03-15T08:25:35;2.00;1.00
14783;DHT22;7483;50.498;12.138;2023-03-15T08:28:06;2.00;1.00
14783;DHT22;7483;50.498;12.138;2023-03-15T08:30:35;2.00;1.00
14783;DHT22;7483;50.498;12.138;2023-03-15T08:33:03;1.90;1.00
14783;DHT22;7483;50.498;12.138;2023-03-15T08:35:31;1.90;1.00
14783;DHT22;7483;50.498;12.138;2023-03-15T08:38:01;2.00;1.00
14783;DHT22;7483;50.498;12.138;2023-03-15T08:40:30;2.10;1.00
14783;DHT22;7483;50.498;12.138;2023-03-15T08:42:58;2.10;1.00
14783;DHT22;7483;50.498;12.138;2023-03-15T08:45:26;2.10;1.00
14783;DHT22;7483;50.498;12.138;2023-03-15T08:47:55;2.20;1.00
14783;DHT22;7483;50.498;12.138;2023-03-15T08:50:23;2.20;99.90
14783;DHT22;7483;50.498;12.138;2023-03-15T08:52:52;2.20;99.90
14783;DHT22;7483;50.498;12.138;2023-03-15T08:55:22;2.30;99.90
14783;DHT22;7483;50.498;12.138;2023-03-15T08:57:50;2.30;99.90
14783;DHT22;7483;50.498;12.138;2023-03-15T09:00:18;2.30;99.90
14783;DHT22;7483;50.498;12.138;2023-03-15T09:02:49;2.40;99.90
14783;DHT22;7483;50.498;12.138;2023-03-15T09:05:19;2.30;99.90
14783;DHT22;7483;50.498;12.138;2023-03-15T09:07:48;2.30;99.90
14783;DHT22;7483;50.498;12.138;2023-03-15T09:10:19;2.30;99.90
14783;DHT22;7483;50.498;12.138;2023-03-15T09:12:50;2.40;99.90
14783;DHT22;7483;50.498;12.138;2023-03-15T09:15:19;2.30;99.90
14783;DHT22;7483;50.498;12.138;2023-03-15T09:17:48;2.30;99.90
14783;DHT22;7483;50.498;12.138;2023-03-15T09:20:18;2.20;99.90
14783;DHT22;7483;50.498;12.138;2023-03-15T09:22:50;2.30;99.90
14783;DHT22;7483;50.498;12.138;2023-03-15T09:25:20;2.30;99.90
14783;DHT22;7483;50.498;12.138;2023-03-15T09:27:50;2.30;99.90
14783;DHT22;7483;50.498;12.138;2023-03-15T09:30:18;2.30;99.90
14783;DHT22;7483;50.498;12.138;2023-03-15T09:32:47;2.30;99.90
14783;DHT22;7483;50.498;12.138;2023-03-15T09:35:17;2.40;99.90
14783;DHT22;7483;50.498;12.138;2023-03-15T09:37:47;2.40;99.90
14783;DHT22;7483;50.498;12.138;2023-03-15T09:40:19;2.40;99.90
14783;DHT22;7483;50.498;12.138;2023-03-15T09:43:21;2.50;99.90
14783;DHT22;7483;50.498;12.138;2023-03-15T09:46:18;2.40;99.90
14783;DHT22;7483;50.498;12.138;2023-03-15T09:48:55;2.40;99.90
14783;DHT22;7483;50.498;12.138;2023-03-15T09:51:36;2.50;99.90
14783;DHT22;7483;50.498;12.138;2023-03-15T09:54:10;2.50;99.90
14783;DHT22;7483;50.498;12.138;2023-03-15T09:56:49;2.40;99.90
14783;DHT22;7483;50.498;12.138;2023-03-15T09:59:24;2.40;99.90
14783;DHT22;7483;50.498;12.138;2023-03-15T10:01:57;2.40;99.90
14783;DHT22;7483;50.498;12.138;2023-03-15T10:04:31;2.40;99.90
14783;DHT22;7483;50.498;12.138;2023-03-15T10:07:10;2.50;99.90
14783;DHT22;7483;50.498;12.138;2023-03-15T10:09:40;2.60;99.90
14783;DHT22;7483;50.498;12.138;2023-03-15T10:12:11;2.70;99.90
14783;DHT22;7483;50.498;12.138;2023-03-15T10:15:00;2.80;99.90
14783;DHT22;7483;50.498;12.138;2023-03-15T10:17:49;2.90;99.90
14783;DHT22;7483;50.498;12.138;2023-03-15T10:20:26;2.80;99.90
14783;DHT22;7483;50.498;12.138;2023-03-15T10:23:04;2.80;99.90
14783;DHT22;7483;50.498;12.138;2023-03-15T10:25:38;2.80;99.90
14783;DHT22;7483;50.498;12.138;2023-03-15T10:28:22;2.90;99.90
14783;DHT22;7483;50.498;12.138;2023-03-15T10:30:58;2.90;99.90
14783;DHT22;7483;50.498;12.138;2023-03-15T10:33:29;2.90;99.90
14783;DHT22;7483;50.498;12.138;2023-03-15T10:35:59;2.90;99.90
14783;DHT22;7483;50.498;12.138;2023-03-15T10:38:37;3.00;99.90
14783;DHT22;7483;50.498;12.138;2023-03-15T10:41:07;3.10;99.90
14783;DHT22;7483;50.498;12.138;2023-03-15T10:43:57;3.10;99.90
14783;DHT22;7483;50.498;12.138;2023-03-15T10:46:30;3.20;99.90
14783;DHT22;7483;50.498;12.138;2023-03-15T10:48:59;3.20;99.90
14783;DHT22;7483;50.498;12.138;2023-03-15T10:51:38;3.10;99.90
14783;DHT22;7483;50.498;12.138;2023-03-15T10:54:14;3.20;99.90
14783;DHT22;7483;50.498;12.138;2023-03-15T10:56:45;3.20;99.90
14783;DHT22;7483;50.498;12.138;2023-03-15T10:59:18;3.30;99.90
14783;DHT22;7483;50.498;12.138;2023-03-15T11:01:52;3.20;99.90
14783;DHT22;7483;50.498;12.138;2023-03-15T11:04:33;3.20;99.90
14783;DHT22;7483;50.498;12.138;2023-03-15T11:07:03;3.10;99.90
14783;DHT22;7483;50.498;12.138;2023-03-15T11:09:38;3.00;99.90
14783;DHT22;7483;50.498;12.138;2023-03-15T11:12:09;2.90;99.90
14783;DHT22;7483;50.498;12.138;2023-03-15T11:14:47;2.90;99.90
14783;DHT22;7483;50.498;12.138;2023-03-15T11:17:20;2.90;99.90
14783;DHT22;7483;50.498;12.138;2023-03-15T11:19:53;2.90;99.90
14783;DHT22;7483;50.498;12.138;2023-03-15T11:22:23;2.90;99.90
14783;DHT22;7483;50.498;12.138;2023-03-15T11:24:52;2.90;99.90
14783;DHT22;7483;50.498;12.138;2023-03-15T11:27:22;3.00;99.90
14783;DHT22;7483;50.498;12.138;2023-03-15T11:29:55;3.10;99.90
14783;DHT22;7483;50.498;12.138;2023-03-15T11:32:29;3.00;99.90
14783;DHT22;7483;50.498;12.138;2023-03-15T11:35:00;2.90;99.90
14783;DHT22;7483;50.498;12.138;2023-03-15T11:37:36;3.00;99.90
14783;DHT22;7483;50.498;12.138;2023-03-15T11:40:12;3.20;99.90
14783;DHT22;7483;50.498;12.138;2023-03-15T11:42:48;3.20;99.90
14783;DHT22;7483;50.498;12.138;2023-03-15T11:45:28;3.40;99.90
14783;DHT22;7483;50.498;12.138;2023-03-15T11:48:25;3.30;99.90
14783;DHT22;7483;50.498;12.138;2023-03-15T11:50:58;3.40;99.90
14783;DHT22;7483;50.498;12.138;2023-03-15T11:53:32;3.60;99.90
14783;DHT22;7483;50.498;12.138;2023-03-15T11:56:19;3.70;99.90
14783;DHT22;7483;50.498;12.138;2023-03-15T11:59:04;3.90;99.90
14783;DHT22;7483;50.498;12.138;2023-03-15T12:01:34;4.00;99.90
14783;DHT22;7483;50.498;12.138;2023-03-15T12:04:40;4.10;99.90
14783;DHT22;7483;50.498;12.138;2023-03-15T12:07:31;4.10;99.90
14783;DHT22;7483;50.498;12.138;2023-03-15T12:10:32;4.30;99.90
14783;DHT22;7483;50.498;12.138;2023-03-15T12:13:19;4.50;99.90
14783;DHT22;7483;50.498;12.138;2023-03-15T12:15:51;4.60;99.90
14783;DHT22;7483;50.498;12.138;2023-03-15T12:18:32;4.70;99.90
14783;DHT22;7483;50.498;12.138;2023-03-15T12:21:15;5.00;99.90
14783;DHT22;7483;50.498;12.138;2023-03-15T12:23:55;4.90;99.90
14783;DHT22;7483;50.498;12.138;2023-03-15T12:26:30;5.00;99.90
14783;DHT22;7483;50.498;12.138;2023-03-15T12:29:09;5.20;99.90
14783;DHT22;7483;50.498;12.138;2023-03-15T12:31:48;5.20;99.90
14783;DHT22;7483;50.498;12.138;2023-03-15T12:34:33;5.40;99.90
14783;DHT22;7483;50.498;12.138;2023-03-15T12:37:08;5.30;99.90
14783;DHT22;7483;50.498;12.138;2023-03-15T12:39:44;5.40;99.90
14783;DHT22;7483;50.498;12.138;2023-03-15T12:42:59;5.60;99.90
14783;DHT22;7483;50.498;12.138;2023-03-15T12:45:36;5.60;99.90
14783;DHT22;7483;50.498;12.138;2023-03-15T12:48:25;5.60;99.90
14783;DHT22;7483;50.498;12.138;2023-03-15T12:51:05;5.70;99.90
14783;DHT22;7483;50.498;12.138;2023-03-15T12:53:49;5.40;99.90
14783;DHT22;7483;50.498;12.138;2023-03-15T12:56:36;5.30;99.90
14783;DHT22;7483;50.498;12.138;2023-03-15T12:59:21;5.20;99.90
14783;DHT22;7483;50.498;12.138;2023-03-15T13:01:57;5.30;99.90
14783;DHT22;7483;50.498;12.138;2023-03-15T13:04:27;5.70;99.90
14783;DHT22;7483;50.498;12.138;2023-03-15T13:07:26;5.90;99.90
14783;DHT22;7483;50.498;12.138;2023-03-15T13:10:31;6.00;99.90
14783;DHT22;7483;50.498;12.138;2023-03-15T13:16:33;5.90;99.90
14783;DHT22;7483;50.498;12.138;2023-03-15T13:19:16;5.70;99.90
14783;DHT22;7483;50.498;12.138;2023-03-15T13:21:58;5.70;99.90
14783;DHT22;7483;50.498;12.138;2023-03-15T13:24:38;5.60;99.90
14783;DHT22;7483;50.498;12.138;2023-03-15T13:27:21;5.40;99.90
14783;DHT22;7483;50.498;12.138;2023-03-15T13:30:01;5.60;99.90
14783;DHT22;7483;50.498;12.138;2023-03-15T13:32:36;5.30;99.90
14783;DHT22;7483;50.498;12.138;2023-03-15T13:35:13;4.90;99.90
14783;DHT22;7483;50.498;12.138;2023-03-15T13:37:41;4.60;99.90
14783;DHT22;7483;50.498;12.138;2023-03-15T13:40:12;4.30;99.90
14783;DHT22;7483;50.498;12.138;2023-03-15T13:42:42;4.20;99.90
14783;DHT22;7483;50.498;12.138;2023-03-15T13:45:12;3.90;99.90
14783;DHT22;7483;50.498;12.138;2023-03-15T13:47:43;3.60;99.90
14783;DHT22;7483;50.498;12.138;2023-03-15T13:50:14;3.70;99.90
14783;DHT22;7483;50.498;12.138;2023-03-15T13:52:44;3.50;99.90
14783;DHT22;7483;50.498;12.138;2023-03-15T13:55:18;3.50;99.90
14783;DHT22;7483;50.498;12.138;2023-03-15T13:57:52;3.30;99.90
14783;DHT22;7483;50.498;12.138;2023-03-15T14:00:24;3.00;99.90
14783;DHT22;7483;50.498;12.138;2023-03-15T14:02:56;2.90;99.90
14783;DHT22;7483;50.498;12.138;2023-03-15T14:05:28;2.80;99.90
14783;DHT22;7483;50.498;12.138;2023-03-15T14:08:00;2.90;99.90
14783;DHT22;7483;50.498;12.138;2023-03-15T14:10:31;2.90;99.90
14783;DHT22;7483;50.498;12.138;2023-03-15T14:13:21;2.90;99.90
14783;DHT22;7483;50.498;12.138;2023-03-15T14:15:56;3.00;99.90
14783;DHT22;7483;50.498;12.138;2023-03-15T14:18:30;3.00;99.90
14783;DHT22;7483;50.498;12.138;2023-03-15T14:21:01;3.10;99.90
14783;DHT22;7483;50.498;12.138;2023-03-15T14:23:37;3.00;99.90
14783;DHT22;7483;50.498;12.138;2023-03-15T14:26:14;3.00;99.90
14783;DHT22;7483;50.498;12.138;2023-03-15T14:28:54;3.00;99.90
14783;DHT22;7483;50.498;12.138;2023-03-15T14:31:29;3.00;99.90
14783;DHT22;7483;50.498;12.138;2023-03-15T14:34:06;3.00;99.90
14783;DHT22;7483;50.498;12.138;2023-03-15T14:36:40;3.00;99.90
14783;DHT22;7483;50.498;12.138;2023-03-15T14:39:18;3.10;99.90
14783;DHT22;7483;50.498;12.138;2023-03-15T14:41:51;3.10;99.90
14783;DHT22;7483;50.498;12.138;2023-03-15T14:44:20;3.20;99.90
14783;DHT22;7483;50.498;12.138;2023-03-15T14:46:48;3.20;99.90
14783;DHT22;7483;50.498;12.138;2023-03-15T14:49:20;3.40;99.90
14783;DHT22;7483;50.498;12.138;2023-03-15T14:51:52;3.50;99.90
14783;DHT22;7483;50.498;12.138;2023-03-15T14:54:24;3.60;99.90
14783;DHT22;7483;50.498;12.138;2023-03-15T14:56:54;3.70;99.90
14783;DHT22;7483;50.498;12.138;2023-03-15T14:59:23;3.70;99.90
14783;DHT22;7483;50.498;12.138;2023-03-15T15:01:53;3.90;99.90
14783;DHT22;7483;50.498;12.138;2023-03-15T15:04:26;3.90;99.90
14783;DHT22;7483;50.498;12.138;2023-03-15T15:06:59;3.90;99.90
14783;DHT22;7483;50.498;12.138;2023-03-15T15:09:28;3.70;99.90
14783;DHT22;7483;50.498;12.138;2023-03-15T15:11:57;3.60;99.90
14783;DHT22;7483;50.498;12.138;2023-03-15T15:14:26;3.50;99.90
14783;DHT22;7483;50.498;12.138;2023-03-15T15:16:54;3.50;99.90
14783;DHT22;7483;50.498;12.138;2023-03-15T15:19:22;3.40;99.90
14783;DHT22;7483;50.498;12.138;2023-03-15T15:21:50;3.40;99.90
14783;DHT22;7483;50.498;12.138;2023-03-15T15:24:20;3.40;99.90
14783;DHT22;7483;50.498;12.138;2023-03-15T15:26:51;3.30;99.90
14783;DHT22;7483;50.498;12.138;2023-03-15T15:29:19;3.30;99.90
14783;DHT22;7483;50.498;12.138;2023-03-15T15:31:48;3.20;99.90
14783;DHT22;7483;50.498;12.138;2023-03-15T15:34:16;3.20;99.90
14783;DHT22;7483;50.498;12.138;2023-03-15T15:36:45;3.20;99.90
14783;DHT22;7483;50.498;12.138;2023-03-15T15:39:19;3.20;99.90
14783;DHT22;7483;50.498;12.138;2023-03-15T15:41:48;3.40;99.90
14783;DHT22;7483;50.498;12.138;2023-03-15T15:44:19;3.40;99.90
14783;DHT22;7483;50.498;12.138;2023-03-15T15:46:49;3.50;99.90
14783;DHT22;7483;50.498;12.138;2023-03-15T15:49:17;3.60;99.90
14783;DHT22;7483;50.498;12.138;2023-03-15T15:51:47;3.60;99.90
14783;DHT22;7483;50.498;12.138;2023-03-15T15:54:17;3.50;99.90
14783;DHT22;7483;50.498;12.138;2023-03-15T15:56:50;3.50;99.90
14783;DHT22;7483;50.498;12.138;2023-03-15T15:59:20;3.50;99.90
14783;DHT22;7483;50.498;12.138;2023-03-15T16:01:53;3.40;99.90
14783;DHT22;7483;50.498;12.138;2023-03-15T16:04:28;3.40;99.90
14783;DHT22;7483;50.498;12.138;2023-03-15T16:06:57;3.40;99.90
14783;DHT22;7483;50.498;12.138;2023-03-15T16:09:29;3.40;99.90
14783;DHT22;7483;50.498;12.138;2023-03-15T16:12:01;3.40;99.90
14783;DHT22;7483;50.498;12.138;2023-03-15T16:14:29;3.40;99.90
14783;DHT22;7483;50.498;12.138;2023-03-15T16:16:58;3.30;99.90
14783;DHT22;7483;50.498;12.138;2023-03-15T16:19:27;3.30;99.90
14783;DHT22;7483;50.498;12.138;2023-03-15T16:21:55;3.30;99.90
14783;DHT22;7483;50.498;12.138;2023-03-15T16:24:26;3.30;99.90
14783;DHT22;7483;50.498;12.138;2023-03-15T16:26:58;3.40;99.90
14783;DHT22;7483;50.498;12.138;2023-03-15T16:29:31;3.40;99.90
14783;DHT22;7483;50.498;12.138;2023-03-15T16:32:06;3.50;99.90
14783;DHT22;7483;50.498;12.138;2023-03-15T16:34:49;3.50;99.90